Time;durP1;ratioP1;P1;durP2;ratioP2;P2;SDS_P1;SDS_P2;PMS_P1;PMS_P2;Temp;Humidity;BMP_temperature;BMP_pressure;BME280_temperature;BME280_humidity;BME280_pressure;Samples;Min_cycle;Max_cycle;Signal;HPM_P1;HPM_P2
2020/12/25 00:00:12;198083.00;0.66;342.62;0.00;0.00;0.62;;;;;25.10;41.30;;;;;;2248334;61;7252;-71
2020/12/25 00:02:38;717181.00;2.39;1237.05;204762.00;0.68;354.12;;;;;25.10;41.30;;;;;;2238463;61;5815;-71
2020/12/25 00:05:05;358855.00;1.20;619.08;29278.00;0.10;51.33;;;;;25.10;41.40;;;;;;2245403;61;5713;-71
2020/12/25 00:07:31;562476.00;1.87;969.47;0.00;0.00;0.62;;;;;25.10;41.40;;;;;;2244712;61;5588;-72
2020/12/25 00:09:57;351504.00;1.17;606.45;0.00;0.00;0.62;;;;;25.10;41.40;;;;;;2244355;61;5718;-72
2020/12/25 00:12:24;110110.00;0.37;191.02;0.00;0.00;0.62;;;;;25.10;41.40;;;;;;2241455;61;5405;-70
2020/12/25 00:14:50;328881.00;1.10;567.56;0.00;0.00;0.62;;;;;25.10;41.40;;;;;;2241726;61;7518;-70
2020/12/25 00:17:17;50776.00;0.17;88.53;0.00;0.00;0.62;;;;;25.10;41.50;;;;;;2245134;61;7282;-71
2020/12/25 00:19:43;750376.00;2.50;1294.71;198975.00;0.66;344.16;;;;;25.10;41.50;;;;;;2245366;61;7174;-70
2020/12/25 00:22:10;389959.00;1.30;672.54;0.00;0.00;0.62;;;;;25.10;41.40;;;;;;2246386;61;5769;-70
2020/12/25 00:24:36;477691.00;1.59;823.42;0.00;0.00;0.62;;;;;25.10;41.40;;;;;;2244404;61;7076;-71
2020/12/25 00:27:02;204092.00;0.68;352.97;0.00;0.00;0.62;;;;;25.10;41.40;;;;;;2245194;61;5995;-71
2020/12/25 00:29:32;492240.00;1.64;848.46;0.00;0.00;0.62;;;;;25.00;41.50;;;;;;2244958;61;5774;-71
2020/12/25 00:32:02;228005.00;0.76;394.12;0.00;0.00;0.62;;;;;25.00;41.50;;;;;;2244225;61;7318;-71
2020/12/25 00:34:28;285770.00;0.95;493.46;0.00;0.00;0.62;;;;;25.00;41.40;;;;;;2243031;61;7187;-71
2020/12/25 00:36:55;713310.00;2.38;1230.33;10841.00;0.04;19.41;;;;;24.90;41.50;;;;;;2238731;61;6841;-71
2020/12/25 00:39:21;276633.00;0.92;477.75;0.00;0.00;0.62;;;;;25.00;41.50;;;;;;2240206;61;7174;-70
2020/12/25 00:41:50;480216.00;1.60;827.77;0.00;0.00;0.62;;;;;24.90;41.40;;;;;;2241800;61;6996;-71
2020/12/25 00:44:20;267269.00;0.89;461.65;0.00;0.00;0.62;;;;;24.90;41.50;;;;;;2245002;61;7089;-71
2020/12/25 00:46:48;150284.00;0.50;260.30;0.00;0.00;0.62;;;;;24.90;41.50;;;;;;2245620;61;7159;-71
2020/12/25 00:49:15;119186.00;0.40;206.68;0.00;0.00;0.62;;;;;24.90;41.60;;;;;;2244628;61;7832;-72
2020/12/25 00:51:43;491945.00;1.64;847.96;0.00;0.00;0.62;;;;;24.90;41.50;;;;;;2242819;61;5941;-72
2020/12/25 00:54:14;587627.00;1.96;1012.86;0.00;0.00;0.62;;;;;24.90;41.50;;;;;;2248288;61;6965;-71
2020/12/25 00:56:44;176720.00;0.59;305.84;0.00;0.00;0.62;;;;;24.90;41.40;;;;;;2245020;61;6579;-71
2020/12/25 00:59:10;153314.00;0.51;265.52;0.00;0.00;0.62;;;;;24.90;41.70;;;;;;2242527;61;5536;-71
2020/12/25 01:01:37;240511.00;0.80;415.63;0.00;0.00;0.62;;;;;24.90;41.60;;;;;;2244045;61;7161;-71
2020/12/25 01:04:12;547847.00;1.83;944.25;74238.00;0.25;129.08;;;;;24.80;41.50;;;;;;2245246;61;6919;-70
2020/12/25 01:06:42;515610.00;1.72;888.70;0.00;0.00;0.62;;;;;24.80;41.50;;;;;;2241983;61;7131;-71
2020/12/25 01:09:09;415291.00;1.38;716.09;0.00;0.00;0.62;;;;;24.80;41.50;;;;;;2241410;61;6907;-71
2020/12/25 01:11:40;251973.00;0.84;435.34;3858.00;0.01;7.31;;;;;24.80;41.50;;;;;;2245736;61;7142;-70
2020/12/25 01:14:07;593524.00;1.98;1023.04;0.00;0.00;0.62;;;;;24.80;41.50;;;;;;2242998;61;5850;-71
2020/12/25 01:16:33;392577.00;1.31;677.04;0.00;0.00;0.62;;;;;24.80;41.60;;;;;;2239124;61;7024;-71
2020/12/25 01:19:03;963903.00;3.21;1668.64;0.00;0.00;0.62;;;;;24.80;41.50;;;;;;2242472;61;7275;-71
2020/12/25 01:21:29;604934.00;2.02;1042.74;16826.00;0.06;29.77;;;;;24.80;41.50;;;;;;2245159;61;7275;-71
2020/12/25 01:23:59;657039.00;2.19;1132.82;27243.00;0.09;47.81;;;;;24.80;41.50;;;;;;2242196;61;6096;-72
2020/12/25 01:26:26;246731.00;0.82;426.33;0.00;0.00;0.62;;;;;24.80;41.60;;;;;;2241260;61;5521;-71
2020/12/25 01:28:54;494157.00;1.65;851.76;14406.00;0.05;25.58;;;;;24.80;41.60;;;;;;2244753;61;5949;-71
2020/12/25 01:31:21;486951.00;1.62;839.36;54752.00;0.18;95.40;;;;;24.80;41.60;;;;;;2249081;61;7166;-70
2020/12/25 01:33:48;537589.00;1.79;926.57;0.00;0.00;0.62;;;;;24.80;41.70;;;;;;2243186;61;7371;-71
2020/12/25 01:36:14;327636.00;1.09;565.42;0.00;0.00;0.62;;;;;24.70;41.60;;;;;;2241828;61;7572;-71
2020/12/25 01:38:40;327617.00;1.09;565.39;0.00;0.00;0.62;;;;;24.70;41.60;;;;;;2244464;61;7053;-71
2020/12/25 01:41:07;853660.00;2.85;1474.87;0.00;0.00;0.62;;;;;24.80;41.60;;;;;;2241649;61;7075;-71
2020/12/25 01:43:33;682635.00;2.28;1177.14;0.00;0.00;0.62;;;;;24.80;41.60;;;;;;2244165;61;6924;-71
2020/12/25 01:46:00;454535.00;1.52;783.58;18614.00;0.06;32.87;;;;;24.80;41.50;;;;;;2244773;61;7355;-70
2020/12/25 01:48:27;1106404.00;3.69;1921.88;0.00;0.00;0.62;;;;;24.80;41.50;;;;;;2242048;61;7250;-71
2020/12/25 01:50:54;445800.00;1.49;768.56;6298.00;0.02;11.53;;;;;24.70;42.10;;;;;;2245910;61;5794;-71
2020/12/25 01:53:22;298652.00;1.00;515.60;0.00;0.00;0.62;;;;;24.70;41.60;;;;;;2241026;61;7122;-71
2020/12/25 01:55:53;399240.00;1.33;688.50;0.00;0.00;0.62;;;;;24.70;41.50;;;;;;2246810;61;5774;-71
2020/12/25 01:58:22;280413.00;0.93;484.25;0.00;0.00;0.62;;;;;24.70;41.60;;;;;;2244892;61;5884;-71
2020/12/25 02:00:48;343455.00;1.14;592.61;0.00;0.00;0.62;;;;;24.70;41.50;;;;;;2247896;40;6582;-67
2020/12/25 02:03:15;798573.00;2.66;1378.64;0.00;0.00;0.62;;;;;24.70;41.60;;;;;;2258706;61;2076;-67
2020/12/25 02:05:46;700371.00;2.33;1207.88;0.00;0.00;0.62;;;;;24.70;41.60;;;;;;2261380;61;1551;-67
2020/12/25 02:08:14;890792.00;2.97;1539.95;9548.00;0.03;17.17;;;;;24.70;41.60;;;;;;2258479;61;1701;-67
2020/12/25 02:10:44;1080967.00;3.60;1876.42;232392.00;0.77;401.66;;;;;24.70;41.60;;;;;;2255474;61;1109;-67
2020/12/25 02:13:12;931403.00;3.10;1611.34;461.00;0.00;1.42;;;;;24.70;41.60;;;;;;2251764;61;1719;-67
2020/12/25 02:15:38;1064624.00;3.55;1847.27;0.00;0.00;0.62;;;;;24.70;41.50;;;;;;2251688;61;1513;-67
2020/12/25 02:18:05;873128.00;2.91;1508.97;561.00;0.00;1.59;;;;;24.70;41.60;;;;;;2255079;61;1667;-67
2020/12/25 02:20:32;743227.00;2.48;1282.28;0.00;0.00;0.62;;;;;24.70;41.60;;;;;;2254870;61;1738;-67
2020/12/25 02:22:58;804644.00;2.68;1389.22;0.00;0.00;0.62;;;;;24.70;41.60;;;;;;2254861;61;2033;-67
2020/12/25 02:25:24;700039.00;2.33;1207.31;0.00;0.00;0.62;;;;;24.60;41.60;;;;;;2251812;61;1867;-67
2020/12/25 02:27:51;460186.00;1.53;793.30;0.00;0.00;0.62;;;;;24.70;41.60;;;;;;2255337;61;1971;-67
2020/12/25 02:30:17;356129.00;1.19;614.40;0.00;0.00;0.62;;;;;24.70;41.60;;;;;;2254975;61;1774;-67
2020/12/25 02:32:44;116995856.00;389.99;64868816.00;0.00;0.00;0.62;;;;;24.60;41.50;;;;;;2261788;61;1724;-67
2020/12/25 02:35:12;371906.00;1.24;641.51;0.00;0.00;0.62;;;;;24.60;41.60;;;;;;2261665;61;1526;-67
2020/12/25 02:37:38;371250.00;1.24;640.39;0.00;0.00;0.62;;;;;24.60;41.60;;;;;;2255264;61;1741;-67
2020/12/25 02:40:05;576852.00;1.92;994.27;0.00;0.00;0.62;;;;;24.60;41.50;;;;;;2255031;61;1799;-67
2020/12/25 02:42:32;490597.00;1.64;845.64;0.00;0.00;0.62;;;;;24.60;41.50;;;;;;2255290;61;1792;-67
2020/12/25 02:44:58;444062.00;1.48;765.57;7632.00;0.03;13.85;;;;;24.60;41.50;;;;;;2251983;61;2039;-67
2020/12/25 02:47:25;679200.00;2.26;1171.19;0.00;0.00;0.62;;;;;24.60;41.60;;;;;;2255057;61;1602;-67
2020/12/25 02:49:56;725858.00;2.42;1252.11;0.00;0.00;0.62;;;;;24.60;41.50;;;;;;2254635;61;5713;-67
2020/12/25 02:52:22;438394.00;1.46;755.82;0.00;0.00;0.62;;;;;24.60;41.60;;;;;;2249256;61;8565;-67
2020/12/25 02:54:49;480313.00;1.60;827.94;0.00;0.00;0.62;;;;;24.60;41.60;;;;;;2250448;61;6058;-67
2020/12/25 02:57:15;706575.00;2.36;1218.64;0.00;0.00;0.62;;;;;24.60;41.60;;;;;;2252969;61;5677;-67
2020/12/25 02:59:41;676408.00;2.25;1166.35;138260.00;0.46;239.57;;;;;24.60;41.50;;;;;;2249667;61;7536;-67
2020/12/25 03:02:08;504983.00;1.68;870.40;0.00;0.00;0.62;;;;;24.60;41.50;;;;;;2249566;61;7056;-67
2020/12/25 03:04:34;576516.00;1.92;993.69;0.00;0.00;0.62;;;;;24.60;41.60;;;;;;2255637;61;3981;-67
2020/12/25 03:07:01;762076.00;2.54;1315.06;0.00;0.00;0.62;;;;;24.60;41.50;;;;;;2240426;61;7626;-67
2020/12/25 03:09:27;685746.00;2.29;1182.53;0.00;0.00;0.62;;;;;24.60;41.60;;;;;;2245807;61;6955;-67
2020/12/25 03:11:53;802708.00;2.68;1385.85;0.00;0.00;0.62;;;;;24.50;41.60;;;;;;2252174;61;7210;-67
2020/12/25 03:14:19;767704.00;2.56;1324.86;0.00;0.00;0.62;;;;;24.60;41.60;;;;;;2251158;61;7371;-67
2020/12/25 03:16:46;920453.00;3.07;1592.07;0.00;0.00;0.62;;;;;24.50;41.50;;;;;;2251754;61;5778;-67
2020/12/25 03:19:12;633268.00;2.11;1091.70;8719.00;0.03;15.73;;;;;24.50;41.50;;;;;;2253784;61;5893;-67
2020/12/25 03:21:39;604788.00;2.02;1042.49;0.00;0.00;0.62;;;;;24.50;41.80;;;;;;2249023;61;6933;-67
2020/12/25 03:24:05;781199.00;2.60;1348.35;0.00;0.00;0.62;;;;;24.50;41.50;;;;;;2246685;61;5624;-67
2020/12/25 03:26:31;1030984.00;3.44;1787.43;27295.00;0.09;47.90;;;;;24.50;41.50;;;;;;2248991;61;7400;-68
2020/12/25 03:28:58;586273.00;1.95;1010.52;0.00;0.00;0.62;;;;;24.50;41.50;;;;;;2249686;61;7596;-67
2020/12/25 03:31:25;585101.00;1.95;1008.50;0.00;0.00;0.62;;;;;24.50;41.40;;;;;;2246681;61;5802;-67
2020/12/25 03:33:51;117413512.00;391.38;65566648.00;0.00;0.00;0.62;;;;;24.50;41.50;;;;;;2249270;61;6738;-67
2020/12/25 03:36:18;426440.00;1.42;735.26;0.00;0.00;0.62;;;;;24.50;41.50;;;;;;2250285;61;4950;-67
2020/12/25 03:38:44;543202.00;1.81;936.24;0.00;0.00;0.62;;;;;24.50;41.50;;;;;;2250282;61;4694;-67
2020/12/25 03:41:14;482889.00;1.61;832.37;0.00;0.00;0.62;;;;;24.50;41.50;;;;;;2253243;61;5954;-67
2020/12/25 03:43:40;492729.00;1.64;849.31;0.00;0.00;0.62;;;;;24.50;41.50;;;;;;2250290;61;5902;-67
2020/12/25 03:46:07;532144.00;1.77;917.19;60328.00;0.20;105.04;;;;;24.50;41.50;;;;;;2249834;61;3912;-67
2020/12/25 03:48:33;373330.00;1.24;643.96;0.00;0.00;0.62;;;;;24.50;41.50;;;;;;2248238;61;4738;-67
2020/12/25 03:51:00;346523.00;1.16;597.89;0.00;0.00;0.62;;;;;24.50;41.50;;;;;;2249538;61;6169;-67
2020/12/25 03:53:26;633434.00;2.11;1091.99;0.00;0.00;0.62;;;;;24.50;41.60;;;;;;2250554;61;6087;-67
2020/12/25 03:55:53;314701.00;1.05;543.19;0.00;0.00;0.62;;;;;24.50;41.50;;;;;;2248183;61;6153;-67
2020/12/25 03:58:19;345093.00;1.15;595.43;0.00;0.00;0.62;;;;;24.50;41.30;;;;;;2249057;61;7057;-67
2020/12/25 04:00:45;362691.00;1.21;625.67;0.00;0.00;0.62;;;;;24.50;41.50;;;;;;2253551;61;7481;-67
2020/12/25 04:03:16;461066.00;1.54;794.82;0.00;0.00;0.62;;;;;24.50;41.50;;;;;;2253622;61;6924;-67
2020/12/25 04:05:43;633215.00;2.11;1091.61;0.00;0.00;0.62;;;;;24.50;41.50;;;;;;2253161;61;5939;-67
2020/12/25 04:08:09;348210.00;1.16;600.78;0.00;0.00;0.62;;;;;24.50;41.40;;;;;;2252938;61;6042;-67
2020/12/25 04:10:35;596376.00;1.99;1027.96;0.00;0.00;0.62;;;;;24.50;41.40;;;;;;2252026;61;5498;-67
2020/12/25 04:13:01;612797.00;2.04;1056.32;0.00;0.00;0.62;;;;;24.50;41.40;;;;;;2250242;61;5873;-67
2020/12/25 04:15:28;443045.00;1.48;763.82;0.00;0.00;0.62;;;;;24.50;41.40;;;;;;2255395;61;7483;-67
2020/12/25 04:17:58;612090.00;2.04;1055.10;0.00;0.00;0.62;;;;;24.50;41.40;;;;;;2253174;61;7977;-67
2020/12/25 04:20:25;845986.00;2.82;1461.44;0.00;0.00;0.62;;;;;24.50;41.40;;;;;;2252921;61;6226;-67
2020/12/25 04:22:51;388895.00;1.30;670.72;0.00;0.00;0.62;;;;;24.50;41.50;;;;;;2249097;61;6492;-67
2020/12/25 04:25:17;463062.00;1.54;798.25;0.00;0.00;0.62;;;;;24.40;41.40;;;;;;2253315;61;7126;-67
2020/12/25 04:27:44;533297.00;1.78;919.17;0.00;0.00;0.62;;;;;24.40;41.40;;;;;;2248494;61;7170;-67
2020/12/25 04:30:10;442075.00;1.47;762.15;0.00;0.00;0.62;;;;;24.40;41.50;;;;;;2252838;61;6082;-67
2020/12/25 04:32:36;411460.00;1.37;709.51;0.00;0.00;0.62;;;;;24.50;41.50;;;;;;2254324;61;5804;-67
2020/12/25 04:35:04;541289.00;1.80;932.94;8034.00;0.03;14.54;;;;;24.50;41.40;;;;;;2253674;61;6927;-67
2020/12/25 04:37:30;630715.00;2.10;1087.29;13086.00;0.04;23.30;;;;;24.50;41.30;;;;;;2252660;61;7315;-67
2020/12/25 04:39:57;399696.00;1.33;689.28;0.00;0.00;0.62;;;;;24.50;41.80;;;;;;2251797;61;6013;-67
2020/12/25 04:42:26;660400.00;2.20;1138.63;0.00;0.00;0.62;;;;;24.50;41.10;;;;;;2251836;61;5767;-67
2020/12/25 04:44:53;431293.00;1.44;743.61;0.00;0.00;0.62;;;;;24.50;41.20;;;;;;2252754;61;5754;-67
2020/12/25 04:47:19;667066.00;2.22;1150.17;0.00;0.00;0.62;;;;;24.50;41.20;;;;;;2257012;61;5868;-67
2020/12/25 04:49:46;604334.00;2.01;1041.70;0.00;0.00;0.62;;;;;24.50;41.30;;;;;;2249748;61;7117;-67
2020/12/25 04:52:12;536331.00;1.79;924.40;0.00;0.00;0.62;;;;;24.50;41.20;;;;;;2245956;61;7189;-67
2020/12/25 04:54:39;530658.00;1.77;914.63;0.00;0.00;0.62;;;;;24.50;41.20;;;;;;2249842;61;7447;-67
2020/12/25 04:57:05;432665.00;1.44;745.97;0.00;0.00;0.62;;;;;24.50;41.30;;;;;;2249841;61;5611;-67
2020/12/25 04:59:32;408881.00;1.36;705.07;0.00;0.00;0.62;;;;;24.40;41.30;;;;;;2250120;61;7085;-67
2020/12/25 05:02:01;560256.00;1.87;965.64;0.00;0.00;0.62;;;;;24.50;41.30;;;;;;2249568;61;5981;-67
2020/12/25 05:04:27;299786.00;1.00;517.55;0.00;0.00;0.62;;;;;24.40;41.30;;;;;;2249215;61;7284;-67
2020/12/25 05:06:54;350311.00;1.17;604.40;0.00;0.00;0.62;;;;;24.50;41.20;;;;;;2253455;61;7075;-67
2020/12/25 05:09:26;753774.00;2.51;1300.62;0.00;0.00;0.62;;;;;24.50;41.20;;;;;;2252960;61;7015;-67
2020/12/25 05:11:54;531810.00;1.77;916.61;0.00;0.00;0.62;;;;;24.50;41.20;;;;;;2251209;61;7356;-67
2020/12/25 05:14:26;587953.00;1.96;1013.42;0.00;0.00;0.62;;;;;24.50;41.20;;;;;;2248884;61;5663;-67
2020/12/25 05:16:57;541675.00;1.81;933.61;0.00;0.00;0.62;;;;;24.40;41.20;;;;;;2254782;61;7167;-67
2020/12/25 05:19:32;376916.00;1.26;650.12;0.00;0.00;0.62;;;;;24.40;41.20;;;;;;2252353;61;7204;-67
2020/12/25 05:22:00;663979.00;2.21;1144.83;104267.00;0.35;180.94;;;;;24.40;41.30;;;;;;2253155;61;7229;-67
2020/12/25 05:24:34;464320.00;1.55;800.42;0.00;0.00;0.62;;;;;24.50;41.20;;;;;;2249180;61;7446;-67
2020/12/25 05:27:00;617238.00;2.06;1063.99;0.00;0.00;0.62;;;;;24.50;41.20;;;;;;2253633;61;5892;-67
2020/12/25 05:29:28;371508.00;1.24;640.83;0.00;0.00;0.62;;;;;24.50;41.20;;;;;;2253805;61;5975;-67
2020/12/25 05:31:55;395214.00;1.32;681.58;0.00;0.00;0.62;;;;;24.50;41.10;;;;;;2249939;61;7242;-67
2020/12/25 05:34:22;663952.00;2.21;1144.78;0.00;0.00;0.62;;;;;24.40;41.10;;;;;;2257194;61;7132;-67
2020/12/25 05:37:05;565731.00;1.89;975.08;0.00;0.00;0.62;;;;;24.50;41.10;;;;;;2250990;61;5482;-67
2020/12/25 05:39:34;455917.00;1.52;785.96;0.00;0.00;0.62;;;;;24.50;41.20;;;;;;2254907;61;5966;-67
2020/12/25 05:42:05;573858.00;1.91;989.10;0.00;0.00;0.62;;;;;24.50;41.00;;;;;;2253350;61;7286;-67
2020/12/25 05:44:46;445718.00;1.49;768.42;0.00;0.00;0.62;;;;;24.50;41.00;;;;;;2249961;61;3942;-67
2020/12/25 05:47:15;609672.00;2.03;1050.92;0.00;0.00;0.62;;;;;24.50;41.30;;;;;;2253475;61;6140;-67
2020/12/25 05:49:42;455583.00;1.52;785.39;0.00;0.00;0.62;;;;;24.50;41.10;;;;;;2254181;61;7474;-67
2020/12/25 05:52:08;482457.00;1.61;831.63;13399.00;0.04;23.84;;;;;24.40;41.00;;;;;;2250673;61;6058;-67
2020/12/25 05:54:36;400519.00;1.34;690.70;5418.00;0.02;10.01;;;;;24.50;41.10;;;;;;2248948;61;5599;-67
2020/12/25 05:57:07;209887.00;0.70;362.94;0.00;0.00;0.62;;;;;24.50;41.20;;;;;;2250499;61;4806;-67
2020/12/25 05:59:34;291360.00;0.97;503.07;0.00;0.00;0.62;;;;;24.50;41.10;;;;;;2254839;61;5705;-67
2020/12/25 06:02:02;162205.00;0.54;280.84;0.00;0.00;0.62;;;;;24.50;41.10;;;;;;2254077;61;6021;-67
2020/12/25 06:04:31;441886.00;1.47;761.83;0.00;0.00;0.62;;;;;24.50;40.90;;;;;;2249405;61;6949;-67
2020/12/25 06:07:10;326401.00;1.09;563.30;0.00;0.00;0.62;;;;;24.50;40.90;;;;;;2254286;61;5966;-67
2020/12/25 06:09:44;282809.00;0.94;488.37;0.00;0.00;0.62;;;;;24.50;40.90;;;;;;2256411;61;5981;-67
2020/12/25 06:12:15;457237.00;1.52;788.23;0.00;0.00;0.62;;;;;24.60;40.90;;;;;;2255883;61;7223;-67
2020/12/25 06:14:41;419193.00;1.40;722.80;0.00;0.00;0.62;;;;;24.50;41.00;;;;;;2251890;61;5923;-67
2020/12/25 06:17:17;750318.00;2.50;1294.61;14951.00;0.05;26.53;;;;;24.50;40.90;;;;;;2249761;61;5512;-67
2020/12/25 06:19:50;387287.00;1.29;667.95;0.00;0.00;0.62;;;;;24.50;40.90;;;;;;2254240;61;5286;-67
2020/12/25 06:22:30;426246.00;1.42;734.93;0.00;0.00;0.62;;;;;24.50;40.90;;;;;;2254315;61;5531;-67
2020/12/25 06:24:59;386326.00;1.29;666.30;0.00;0.00;0.62;;;;;24.50;40.90;;;;;;2255760;61;4024;-67
2020/12/25 06:27:27;325062.00;1.08;561.00;7246.00;0.02;13.18;;;;;24.50;40.80;;;;;;2255171;61;5625;-67
2020/12/25 06:29:54;283831.00;0.95;490.12;0.00;0.00;0.62;;;;;24.40;40.90;;;;;;2253299;61;3994;-67
2020/12/25 06:32:26;153207.00;0.51;265.33;0.00;0.00;0.62;;;;;24.50;41.00;;;;;;2256319;61;5609;-67
2020/12/25 06:34:59;89116.00;0.30;154.78;0.00;0.00;0.62;;;;;24.40;41.00;;;;;;2253972;61;7234;-67
2020/12/25 06:37:30;122512.00;0.41;212.42;0.00;0.00;0.62;;;;;24.40;41.10;;;;;;2253517;61;5653;-67
2020/12/25 06:40:06;477180.00;1.59;822.54;0.00;0.00;0.62;;;;;24.40;41.10;;;;;;2253029;61;7026;-67
2020/12/25 06:42:35;207817.00;0.69;359.38;0.00;0.00;0.62;;;;;24.40;41.00;;;;;;2253987;61;5903;-67
2020/12/25 06:45:06;408567.00;1.36;704.53;15965.00;0.05;28.28;;;;;24.40;41.10;;;;;;2253299;61;5709;-67
2020/12/25 06:47:35;330430.00;1.10;570.23;0.00;0.00;0.62;;;;;24.30;41.00;;;;;;2254333;61;5771;-67
2020/12/25 06:50:15;311980.00;1.04;538.51;0.00;0.00;0.62;;;;;24.30;41.10;;;;;;2248946;61;5555;-67
2020/12/25 06:52:57;171593.00;0.57;297.01;0.00;0.00;0.62;;;;;24.30;41.20;;;;;;2257357;61;5948;-67
2020/12/25 06:55:24;488468.00;1.63;841.97;0.00;0.00;0.62;;;;;24.30;41.80;;;;;;2253218;61;6646;-67
2020/12/25 06:57:54;304011.00;1.01;524.81;0.00;0.00;0.62;;;;;24.20;41.30;;;;;;2253333;61;4062;-66
2020/12/25 07:00:21;185569.00;0.62;321.08;0.00;0.00;0.62;;;;;24.20;41.30;;;;;;2250491;61;3429;-66
2020/12/25 07:02:48;253792.00;0.85;438.47;0.00;0.00;0.62;;;;;24.30;41.40;;;;;;2254243;61;3881;-66
2020/12/25 07:05:15;283573.00;0.95;489.68;0.00;0.00;0.62;;;;;24.20;41.30;;;;;;2246867;61;5397;-66
2020/12/25 07:07:41;166270.00;0.55;287.84;0.00;0.00;0.62;;;;;24.20;41.30;;;;;;2247046;61;7205;-66
2020/12/25 07:10:10;133748.00;0.45;231.79;0.00;0.00;0.62;;;;;24.20;41.90;;;;;;2255374;61;5473;-66
2020/12/25 07:12:40;311580.00;1.04;537.83;0.00;0.00;0.62;;;;;24.20;41.40;;;;;;2254386;61;5668;-66
2020/12/25 07:15:08;173811.00;0.58;300.83;0.00;0.00;0.62;;;;;24.20;41.30;;;;;;2251002;61;7120;-66
2020/12/25 07:17:35;381601.00;1.27;658.18;0.00;0.00;0.62;;;;;24.20;41.40;;;;;;2249797;61;7217;-67
2020/12/25 07:20:08;225450.00;0.75;389.72;0.00;0.00;0.62;;;;;24.20;41.20;;;;;;2249063;61;7389;-67
2020/12/25 07:22:35;103059.00;0.34;178.85;0.00;0.00;0.62;;;;;24.20;41.00;;;;;;2254142;61;6213;-67
2020/12/25 07:25:07;192988.00;0.64;333.85;0.00;0.00;0.62;;;;;24.20;40.70;;;;;;2249999;61;6416;-66
2020/12/25 07:27:34;262882.00;0.88;454.10;0.00;0.00;0.62;;;;;24.30;41.10;;;;;;2249823;61;7247;-66
2020/12/25 07:30:01;251254.00;0.84;434.11;0.00;0.00;0.62;;;;;24.30;40.40;;;;;;2251684;61;5672;-67
2020/12/25 07:32:30;411564.00;1.37;709.69;0.00;0.00;0.62;;;;;24.30;40.40;;;;;;2252558;61;7132;-67
2020/12/25 07:35:02;234578.00;0.78;405.42;0.00;0.00;0.62;;;;;24.30;40.40;;;;;;2251059;61;4709;-67
2020/12/25 07:37:29;320132.00;1.07;552.53;0.00;0.00;0.62;;;;;24.30;40.30;;;;;;2252985;61;6100;-66
2020/12/25 07:39:56;260041.00;0.87;449.22;0.00;0.00;0.62;;;;;24.30;40.30;;;;;;2251390;61;5789;-67
2020/12/25 07:42:22;538801.00;1.80;928.66;0.00;0.00;0.62;;;;;24.30;40.30;;;;;;2246000;61;6116;-66
2020/12/25 07:44:49;360051.00;1.20;621.14;0.00;0.00;0.62;;;;;24.30;40.40;;;;;;2252213;61;6012;-66
2020/12/25 07:47:19;340877.00;1.14;588.18;0.00;0.00;0.62;;;;;24.30;40.40;;;;;;2253469;61;5792;-66
2020/12/25 07:49:45;714145.00;2.38;1231.78;0.00;0.00;0.62;;;;;24.30;40.40;;;;;;2249122;61;5264;-66
2020/12/25 07:52:12;508311.00;1.69;876.13;0.00;0.00;0.62;;;;;24.30;40.40;;;;;;2248597;61;5450;-67
2020/12/25 07:54:38;389440.00;1.30;671.65;0.00;0.00;0.62;;;;;24.30;40.40;;;;;;2245483;61;7193;-66
2020/12/25 07:57:08;218194.00;0.73;377.24;0.00;0.00;0.62;;;;;24.30;40.30;;;;;;2251000;61;6026;-66
2020/12/25 07:59:35;416881.00;1.39;718.83;0.00;0.00;0.62;;;;;24.30;40.80;;;;;;2249055;61;6159;-67
2020/12/25 08:02:02;459005.00;1.53;791.27;0.00;0.00;0.62;;;;;24.30;40.10;;;;;;2247474;61;7052;-66
2020/12/25 08:04:28;448968.00;1.50;774.01;0.00;0.00;0.62;;;;;24.30;40.20;;;;;;2250775;61;5925;-66
2020/12/25 08:06:55;646699.00;2.16;1114.93;0.00;0.00;0.62;;;;;24.30;40.20;;;;;;2249443;61;5492;-66
2020/12/25 08:09:24;272905.00;0.91;471.34;0.00;0.00;0.62;;;;;24.40;40.20;;;;;;2247959;61;5864;-66
2020/12/25 08:11:51;268299.00;0.89;463.42;0.00;0.00;0.62;;;;;24.40;40.10;;;;;;2252002;61;7227;-68
2020/12/25 08:14:21;293105.00;0.98;506.07;0.00;0.00;0.62;;;;;24.40;40.10;;;;;;2251296;61;5722;-67
2020/12/25 08:16:49;369457.00;1.23;637.30;0.00;0.00;0.62;;;;;24.40;40.00;;;;;;2249975;61;7204;-67
2020/12/25 08:19:18;121153608.00;403.85;72040192.00;0.00;0.00;0.62;;;;;24.40;40.00;;;;;;2249662;61;5640;-67
2020/12/25 08:21:45;178552.00;0.60;309.00;0.00;0.00;0.62;;;;;24.40;40.70;;;;;;2253214;61;7279;-67
2020/12/25 08:24:11;96039.00;0.32;166.73;0.00;0.00;0.62;;;;;24.40;40.10;;;;;;2252436;61;5703;-68
2020/12/25 08:26:40;395839.00;1.32;682.65;0.00;0.00;0.62;;;;;24.40;40.00;;;;;;2249064;61;5915;-67
2020/12/25 08:29:08;220759.00;0.74;381.65;0.00;0.00;0.62;;;;;24.40;40.00;;;;;;2250041;61;5495;-67
2020/12/25 08:31:36;289085.00;0.96;499.16;0.00;0.00;0.62;;;;;24.40;40.00;;;;;;2249020;61;5469;-67
2020/12/25 08:34:14;329990.00;1.10;569.47;7470.00;0.02;13.57;;;;;24.40;40.00;;;;;;2253266;61;6864;-68
2020/12/25 08:36:41;299329.00;1.00;516.77;0.00;0.00;0.62;;;;;24.40;39.90;;;;;;2252913;61;7411;-67
2020/12/25 08:39:09;340801.00;1.14;588.05;10640.00;0.04;19.06;;;;;24.50;39.90;;;;;;2252618;61;7384;-67
2020/12/25 08:41:39;409654.00;1.37;706.40;0.00;0.00;0.62;;;;;24.40;39.90;;;;;;2253338;61;7351;-68
2020/12/25 08:44:10;184902.00;0.62;319.93;0.00;0.00;0.62;;;;;24.40;40.00;;;;;;2246965;61;5990;-68
2020/12/25 08:46:36;555693.00;1.85;957.77;0.00;0.00;0.62;;;;;24.40;39.80;;;;;;2250328;61;5779;-67
2020/12/25 08:49:03;202990.00;0.68;351.07;0.00;0.00;0.62;;;;;24.40;39.90;;;;;;2253493;61;4726;-68
2020/12/25 08:51:36;314997.00;1.05;543.70;0.00;0.00;0.62;;;;;24.40;39.90;;;;;;2250443;61;7624;-67
2020/12/25 08:54:03;288225.00;0.96;497.68;0.00;0.00;0.62;;;;;24.40;40.00;;;;;;2251206;61;5876;-68
2020/12/25 08:56:29;310463.00;1.03;535.91;0.00;0.00;0.62;;;;;24.40;40.10;;;;;;2249614;61;6937;-68
2020/12/25 08:59:07;376038.00;1.25;648.62;0.00;0.00;0.62;;;;;24.50;40.30;;;;;;2248519;61;7064;-69
2020/12/25 09:01:38;292181.00;0.97;504.48;0.00;0.00;0.62;;;;;24.50;40.30;;;;;;2251934;61;5152;-69
2020/12/25 09:04:11;298579.00;1.00;515.48;0.00;0.00;0.62;;;;;24.50;40.40;;;;;;2253518;61;5727;-68
2020/12/25 09:06:37;481597.00;1.61;830.15;14777.00;0.05;26.22;;;;;24.60;40.60;;;;;;2253576;61;7740;-68
2020/12/25 09:09:13;266656.00;0.89;460.59;0.00;0.00;0.62;;;;;24.60;40.50;;;;;;2254718;61;5963;-66
2020/12/25 09:11:39;483820.00;1.61;833.97;0.00;0.00;0.62;;;;;24.60;40.50;;;;;;2254011;61;7459;-68
2020/12/25 09:14:06;208694.00;0.70;360.89;0.00;0.00;0.62;;;;;24.70;40.40;;;;;;2251451;61;4638;-69
2020/12/25 09:16:32;929763.00;3.10;1608.45;5764.00;0.02;10.61;;;;;24.70;40.40;;;;;;2252713;61;6801;-68
2020/12/25 09:18:59;663321.00;2.21;1143.69;0.00;0.00;0.62;;;;;24.80;40.30;;;;;;2252566;61;7495;-68
2020/12/25 09:21:29;667423.00;2.22;1150.79;0.00;0.00;0.62;;;;;24.90;40.30;;;;;;2250355;61;7941;-68
2020/12/25 09:23:56;411512.00;1.37;709.60;0.00;0.00;0.62;;;;;24.80;40.30;;;;;;2253748;61;6346;-69
2020/12/25 09:26:23;351363.00;1.17;606.20;6512.00;0.02;11.91;;;;;24.90;40.40;;;;;;2247603;61;8101;-68
2020/12/25 09:28:49;296919.00;0.99;512.62;20510.00;0.07;36.15;;;;;24.90;40.40;;;;;;2256936;61;5755;-68
2020/12/25 09:31:16;485992.00;1.62;837.71;15808.00;0.05;28.01;;;;;24.90;40.40;;;;;;2254722;61;6128;-67
2020/12/25 09:33:42;116685328.00;388.95;64353208.00;0.00;0.00;0.62;;;;;25.00;40.30;;;;;;2249814;61;6077;-67
2020/12/25 09:36:09;657427.00;2.19;1133.49;6427.00;0.02;11.76;;;;;24.90;40.40;;;;;;2252912;61;6142;-67
2020/12/25 09:38:42;796063.00;2.65;1374.26;0.00;0.00;0.62;;;;;24.90;40.60;;;;;;2255867;61;8376;-68
2020/12/25 09:41:11;1026038.00;3.42;1778.64;0.00;0.00;0.62;;;;;24.90;40.50;;;;;;2253864;61;4010;-67
2020/12/25 09:43:37;119294992.00;397.65;68772352.00;0.00;0.00;0.62;;;;;25.00;40.60;;;;;;2251214;61;8781;-66
2020/12/25 09:46:03;1696013.00;5.65;3017.68;39111.00;0.13;68.35;;;;;25.10;40.50;;;;;;2253209;61;7488;-66
2020/12/25 09:48:31;1132335.00;3.77;1968.35;0.00;0.00;0.62;;;;;25.10;40.40;;;;;;2250313;61;5719;-67